sensor_id;sensor_type;location;lat;lon;timestamp;temperature;humidity
68746;SHT31;73143;45.456;11.064;2024-01-30T00:01:45;1.32;77.81
68746;SHT31;73143;45.456;11.064;2024-01-30T00:04:22;1.27;78.08
68746;SHT31;73143;45.456;11.064;2024-01-30T00:06:59;1.28;78.14
68746;SHT31;73143;45.456;11.064;2024-01-30T00:09:37;1.28;77.98
68746;SHT31;73143;45.456;11.064;2024-01-30T00:12:14;1.28;77.82
68746;SHT31;73143;45.456;11.064;2024-01-30T00:14:52;1.29;77.88
68746;SHT31;73143;45.456;11.064;2024-01-30T00:17:30;1.29;77.62
68746;SHT31;73143;45.456;11.064;2024-01-30T00:20:09;1.23;77.41
68746;SHT31;73143;45.456;11.064;2024-01-30T00:22:51;1.19;77.56
68746;SHT31;73143;45.456;11.064;2024-01-30T00:25:29;1.16;77.45
68746;SHT31;73143;45.456;11.064;2024-01-30T00:28:07;1.09;77.55
68746;SHT31;73143;45.456;11.064;2024-01-30T00:30:45;1.04;77.76
68746;SHT31;73143;45.456;11.064;2024-01-30T00:33:22;0.99;77.91
68746;SHT31;73143;45.456;11.064;2024-01-30T00:35:59;0.96;78.23
68746;SHT31;73143;45.456;11.064;2024-01-30T00:38:39;0.92;78.44
68746;SHT31;73143;45.456;11.064;2024-01-30T00:41:16;0.88;78.61
68746;SHT31;73143;45.456;11.064;2024-01-30T00:43:54;0.86;78.90
68746;SHT31;73143;45.456;11.064;2024-01-30T00:46:32;0.83;78.96
68746;SHT31;73143;45.456;11.064;2024-01-30T00:49:09;0.78;79.20
68746;SHT31;73143;45.456;11.064;2024-01-30T00:51:47;0.75;79.47
68746;SHT31;73143;45.456;11.064;2024-01-30T00:54:24;0.73;79.75
68746;SHT31;73143;45.456;11.064;2024-01-30T00:57:01;0.68;79.90
68746;SHT31;73143;45.456;11.064;2024-01-30T00:59:41;0.65;80.04
68746;SHT31;73143;45.456;11.064;2024-01-30T01:02:18;0.63;80.12
68746;SHT31;73143;45.456;11.064;2024-01-30T01:04:56;0.60;80.43
68746;SHT31;73143;45.456;11.064;2024-01-30T01:07:32;0.58;80.53
68746;SHT31;73143;45.456;11.064;2024-01-30T01:10:11;0.57;80.61
68746;SHT31;73143;45.456;11.064;2024-01-30T01:12:50;0.55;80.68
68746;SHT31;73143;45.456;11.064;2024-01-30T01:15:26;0.53;80.90
68746;SHT31;73143;45.456;11.064;2024-01-30T01:18:05;0.54;81.12
68746;SHT31;73143;45.456;11.064;2024-01-30T01:20:42;0.55;81.10
68746;SHT31;73143;45.456;11.064;2024-01-30T01:23:19;0.55;81.03
68746;SHT31;73143;45.456;11.064;2024-01-30T01:25:56;0.56;80.88
68746;SHT31;73143;45.456;11.064;2024-01-30T01:28:34;0.58;80.65
68746;SHT31;73143;45.456;11.064;2024-01-30T01:31:13;0.61;80.68
68746;SHT31;73143;45.456;11.064;2024-01-30T01:33:53;0.64;80.53
68746;SHT31;73143;45.456;11.064;2024-01-30T01:36:30;0.65;80.34
68746;SHT31;73143;45.456;11.064;2024-01-30T01:39:07;0.67;80.29
68746;SHT31;73143;45.456;11.064;2024-01-30T01:41:44;0.65;80.21
68746;SHT31;73143;45.456;11.064;2024-01-30T01:44:22;0.64;80.29
68746;SHT31;73143;45.456;11.064;2024-01-30T01:46:59;0.66;80.38
68746;SHT31;73143;45.456;11.064;2024-01-30T01:49:37;0.67;80.29
68746;SHT31;73143;45.456;11.064;2024-01-30T01:52:14;0.66;80.36
68746;SHT31;73143;45.456;11.064;2024-01-30T01:54:51;0.68;80.55
68746;SHT31;73143;45.456;11.064;2024-01-30T01:57:30;0.70;80.54
68746;SHT31;73143;45.456;11.064;2024-01-30T02:00:09;0.69;80.35
68746;SHT31;73143;45.456;11.064;2024-01-30T02:02:47;0.65;80.34
68746;SHT31;73143;45.456;11.064;2024-01-30T02:05:28;0.60;80.22
68746;SHT31;73143;45.456;11.064;2024-01-30T02:08:06;0.57;80.58
68746;SHT31;73143;45.456;11.064;2024-01-30T02:10:44;0.60;80.66
68746;SHT31;73143;45.456;11.064;2024-01-30T02:13:21;0.61;80.41
68746;SHT31;73143;45.456;11.064;2024-01-30T02:15:57;0.58;80.35
68746;SHT31;73143;45.456;11.064;2024-01-30T02:18:35;0.52;80.29
68746;SHT31;73143;45.456;11.064;2024-01-30T02:21:16;0.47;80.51
68746;SHT31;73143;45.456;11.064;2024-01-30T02:23:52;0.44;80.55
68746;SHT31;73143;45.456;11.064;2024-01-30T02:26:32;0.41;80.50
68746;SHT31;73143;45.456;11.064;2024-01-30T02:29:09;0.40;80.64
68746;SHT31;73143;45.456;11.064;2024-01-30T02:31:46;0.38;80.18
68746;SHT31;73143;45.456;11.064;2024-01-30T02:34:25;0.35;79.92
68746;SHT31;73143;45.456;11.064;2024-01-30T02:37:02;0.28;79.75
68746;SHT31;73143;45.456;11.064;2024-01-30T02:39:40;0.20;79.68
68746;SHT31;73143;45.456;11.064;2024-01-30T02:42:17;0.13;79.80
68746;SHT31;73143;45.456;11.064;2024-01-30T02:44:54;0.13;79.94
68746;SHT31;73143;45.456;11.064;2024-01-30T02:47:32;0.15;79.67
68746;SHT31;73143;45.456;11.064;2024-01-30T02:50:10;0.14;79.58
68746;SHT31;73143;45.456;11.064;2024-01-30T02:52:49;0.16;79.74
68746;SHT31;73143;45.456;11.064;2024-01-30T02:55:26;0.16;79.78
68746;SHT31;73143;45.456;11.064;2024-01-30T02:58:04;0.15;79.74
68746;SHT31;73143;45.456;11.064;2024-01-30T03:00:41;0.15;79.80
68746;SHT31;73143;45.456;11.064;2024-01-30T03:03:19;0.13;79.83
68746;SHT31;73143;45.456;11.064;2024-01-30T03:05:56;0.14;79.87
68746;SHT31;73143;45.456;11.064;2024-01-30T03:08:33;0.12;79.96
68746;SHT31;73143;45.456;11.064;2024-01-30T03:11:10;0.13;80.13
68746;SHT31;73143;45.456;11.064;2024-01-30T03:13:48;0.12;80.15
68746;SHT31;73143;45.456;11.064;2024-01-30T03:16:25;0.12;80.17
68746;SHT31;73143;45.456;11.064;2024-01-30T03:19:04;0.10;80.04
68746;SHT31;73143;45.456;11.064;2024-01-30T03:21:41;0.10;79.76
68746;SHT31;73143;45.456;11.064;2024-01-30T03:24:18;0.04;79.59
68746;SHT31;73143;45.456;11.064;2024-01-30T03:26:55;-0.00;79.69
68746;SHT31;73143;45.456;11.064;2024-01-30T03:29:33;-0.03;79.90
68746;SHT31;73143;45.456;11.064;2024-01-30T03:32:11;-0.03;79.98
68746;SHT31;73143;45.456;11.064;2024-01-30T03:34:47;-0.04;79.94
68746;SHT31;73143;45.456;11.064;2024-01-30T03:37:25;-0.04;79.79
68746;SHT31;73143;45.456;11.064;2024-01-30T03:40:03;-0.10;79.47
68746;SHT31;73143;45.456;11.064;2024-01-30T03:42:45;-0.16;79.68
68746;SHT31;73143;45.456;11.064;2024-01-30T03:45:23;-0.20;79.79
68746;SHT31;73143;45.456;11.064;2024-01-30T03:48:00;-0.25;79.93
68746;SHT31;73143;45.456;11.064;2024-01-30T03:50:41;-0.30;80.06
68746;SHT31;73143;45.456;11.064;2024-01-30T03:53:18;-0.31;80.28
68746;SHT31;73143;45.456;11.064;2024-01-30T03:55:56;-0.32;80.20
68746;SHT31;73143;45.456;11.064;2024-01-30T03:58:32;-0.33;80.11
68746;SHT31;73143;45.456;11.064;2024-01-30T04:01:14;-0.38;79.87
68746;SHT31;73143;45.456;11.064;2024-01-30T04:03:52;-0.43;79.86
68746;SHT31;73143;45.456;11.064;2024-01-30T04:06:29;-0.47;79.56
68746;SHT31;73143;45.456;11.064;2024-01-30T04:09:09;-0.56;79.50
68746;SHT31;73143;45.456;11.064;2024-01-30T04:11:45;-0.57;79.56
68746;SHT31;73143;45.456;11.064;2024-01-30T04:14:22;-0.60;79.70
68746;SHT31;73143;45.456;11.064;2024-01-30T04:16:59;-0.60;79.98
68746;SHT31;73143;45.456;11.064;2024-01-30T04:19:39;-0.57;80.01
68746;SHT31;73143;45.456;11.064;2024-01-30T04:22:17;-0.56;80.16
68746;SHT31;73143;45.456;11.064;2024-01-30T04:24:54;-0.56;80.08
68746;SHT31;73143;45.456;11.064;2024-01-30T04:27:33;-0.58;80.33
68746;SHT31;73143;45.456;11.064;2024-01-30T04:30:12;-0.59;80.35
68746;SHT31;73143;45.456;11.064;2024-01-30T04:32:49;-0.60;80.32
68746;SHT31;73143;45.456;11.064;2024-01-30T04:35:26;-0.61;80.36
68746;SHT31;73143;45.456;11.064;2024-01-30T04:38:05;-0.64;80.48
68746;SHT31;73143;45.456;11.064;2024-01-30T04:40:43;-0.61;80.94
68746;SHT31;73143;45.456;11.064;2024-01-30T04:43:20;-0.56;80.85
68746;SHT31;73143;45.456;11.064;2024-01-30T04:45:57;-0.53;80.84
68746;SHT31;73143;45.456;11.064;2024-01-30T04:48:34;-0.47;80.61
68746;SHT31;73143;45.456;11.064;2024-01-30T04:51:12;-0.46;80.36
68746;SHT31;73143;45.456;11.064;2024-01-30T04:53:50;-0.47;80.11
68746;SHT31;73143;45.456;11.064;2024-01-30T04:56:27;-0.49;80.08
68746;SHT31;73143;45.456;11.064;2024-01-30T04:59:07;-0.49;80.19
68746;SHT31;73143;45.456;11.064;2024-01-30T05:01:46;-0.48;80.36
68746;SHT31;73143;45.456;11.064;2024-01-30T05:04:23;-0.46;80.27
68746;SHT31;73143;45.456;11.064;2024-01-30T05:07:01;-0.48;80.09
68746;SHT31;73143;45.456;11.064;2024-01-30T05:09:38;-0.55;80.25
68746;SHT31;73143;45.456;11.064;2024-01-30T05:12:16;-0.60;80.36
68746;SHT31;73143;45.456;11.064;2024-01-30T05:14:53;-0.64;80.43
68746;SHT31;73143;45.456;11.064;2024-01-30T05:17:30;-0.67;80.80
68746;SHT31;73143;45.456;11.064;2024-01-30T05:20:10;-0.66;80.78
68746;SHT31;73143;45.456;11.064;2024-01-30T05:22:50;-0.62;80.82
68746;SHT31;73143;45.456;11.064;2024-01-30T05:25:27;-0.62;80.83
68746;SHT31;73143;45.456;11.064;2024-01-30T05:28:05;-0.61;80.97
68746;SHT31;73143;45.456;11.064;2024-01-30T05:30:43;-0.57;80.97
68746;SHT31;73143;45.456;11.064;2024-01-30T05:33:21;-0.55;80.70
68746;SHT31;73143;45.456;11.064;2024-01-30T05:35:58;-0.55;80.45
68746;SHT31;73143;45.456;11.064;2024-01-30T05:38:39;-0.55;80.50
68746;SHT31;73143;45.456;11.064;2024-01-30T05:41:16;-0.53;80.42
68746;SHT31;73143;45.456;11.064;2024-01-30T05:43:55;-0.56;80.28
68746;SHT31;73143;45.456;11.064;2024-01-30T05:46:32;-0.60;80.13
68746;SHT31;73143;45.456;11.064;2024-01-30T05:49:11;-0.64;80.11
68746;SHT31;73143;45.456;11.064;2024-01-30T05:51:48;-0.70;80.29
68746;SHT31;73143;45.456;11.064;2024-01-30T05:54:25;-0.69;80.65
68746;SHT31;73143;45.456;11.064;2024-01-30T05:57:02;-0.65;80.48
68746;SHT31;73143;45.456;11.064;2024-01-30T05:59:41;-0.62;80.27
68746;SHT31;73143;45.456;11.064;2024-01-30T06:02:22;-0.60;80.18
68746;SHT31;73143;45.456;11.064;2024-01-30T06:04:59;-0.57;80.08
68746;SHT31;73143;45.456;11.064;2024-01-30T06:07:40;-0.54;80.07
68746;SHT31;73143;45.456;11.064;2024-01-30T06:10:17;-0.56;79.75
68746;SHT31;73143;45.456;11.064;2024-01-30T06:12:55;-0.63;79.88
68746;SHT31;73143;45.456;11.064;2024-01-30T06:15:31;-0.65;80.17
68746;SHT31;73143;45.456;11.064;2024-01-30T06:18:08;-0.63;80.17
68746;SHT31;73143;45.456;11.064;2024-01-30T06:20:45;-0.63;80.22
68746;SHT31;73143;45.456;11.064;2024-01-30T06:23:26;-0.60;80.13
68746;SHT31;73143;45.456;11.064;2024-01-30T06:26:04;-0.58;79.80
68746;SHT31;73143;45.456;11.064;2024-01-30T06:28:42;-0.57;79.69
68746;SHT31;73143;45.456;11.064;2024-01-30T06:31:19;-0.54;79.71
68746;SHT31;73143;45.456;11.064;2024-01-30T06:33:56;-0.53;79.52
68746;SHT31;73143;45.456;11.064;2024-01-30T06:36:34;-0.51;79.47
68746;SHT31;73143;45.456;11.064;2024-01-30T06:39:11;-0.52;79.29
68746;SHT31;73143;45.456;11.064;2024-01-30T06:41:48;-0.55;79.03
68746;SHT31;73143;45.456;11.064;2024-01-30T06:44:25;-0.63;79.22
68746;SHT31;73143;45.456;11.064;2024-01-30T06:47:03;-0.67;79.61
68746;SHT31;73143;45.456;11.064;2024-01-30T06:49:41;-0.67;79.49
68746;SHT31;73143;45.456;11.064;2024-01-30T06:52:18;-0.63;79.58
68746;SHT31;73143;45.456;11.064;2024-01-30T06:54:56;-0.60;79.41
68746;SHT31;73143;45.456;11.064;2024-01-30T06:57:33;-0.61;79.42
68746;SHT31;73143;45.456;11.064;2024-01-30T07:00:13;-0.59;79.37
68746;SHT31;73143;45.456;11.064;2024-01-30T07:02:54;-0.60;79.10
68746;SHT31;73143;45.456;11.064;2024-01-30T07:05:31;-0.61;79.21
68746;SHT31;73143;45.456;11.064;2024-01-30T07:08:08;-0.59;79.32
68746;SHT31;73143;45.456;11.064;2024-01-30T07:10:48;-0.55;79.08
68746;SHT31;73143;45.456;11.064;2024-01-30T07:13:29;-0.49;78.81
68746;SHT31;73143;45.456;11.064;2024-01-30T07:16:10;-0.46;78.62
68746;SHT31;73143;45.456;11.064;2024-01-30T07:18:49;-0.47;78.55
68746;SHT31;73143;45.456;11.064;2024-01-30T07:21:26;-0.41;78.50
68746;SHT31;73143;45.456;11.064;2024-01-30T07:24:04;-0.42;78.40
68746;SHT31;73143;45.456;11.064;2024-01-30T07:26:42;-0.44;78.40
68746;SHT31;73143;45.456;11.064;2024-01-30T07:29:19;-0.46;78.44
68746;SHT31;73143;45.456;11.064;2024-01-30T07:31:56;-0.48;78.40
68746;SHT31;73143;45.456;11.064;2024-01-30T07:34:33;-0.54;78.42
68746;SHT31;73143;45.456;11.064;2024-01-30T07:37:30;-0.58;78.78
68746;SHT31;73143;45.456;11.064;2024-01-30T07:40:11;-0.61;79.13
68746;SHT31;73143;45.456;11.064;2024-01-30T07:42:51;-0.64;79.42
68746;SHT31;73143;45.456;11.064;2024-01-30T07:45:28;-0.67;79.63
68746;SHT31;73143;45.456;11.064;2024-01-30T07:48:07;-0.68;79.87
68746;SHT31;73143;45.456;11.064;2024-01-30T07:50:43;-0.67;80.12
68746;SHT31;73143;45.456;11.064;2024-01-30T07:53:21;-0.69;80.12
68746;SHT31;73143;45.456;11.064;2024-01-30T07:55:59;-0.69;80.56
68746;SHT31;73143;45.456;11.064;2024-01-30T07:58:38;-0.64;80.70
68746;SHT31;73143;45.456;11.064;2024-01-30T08:01:16;-0.59;80.61
68746;SHT31;73143;45.456;11.064;2024-01-30T08:03:53;-0.52;80.55
68746;SHT31;73143;45.456;11.064;2024-01-30T08:06:30;-0.45;80.36
68746;SHT31;73143;45.456;11.064;2024-01-30T08:09:12;-0.38;80.30
68746;SHT31;73143;45.456;11.064;2024-01-30T08:11:49;-0.35;79.90
68746;SHT31;73143;45.456;11.064;2024-01-30T08:14:26;-0.35;79.99
68746;SHT31;73143;45.456;11.064;2024-01-30T08:17:02;-0.28;80.29
68746;SHT31;73143;45.456;11.064;2024-01-30T08:19:39;-0.22;80.23
68746;SHT31;73143;45.456;11.064;2024-01-30T08:22:16;-0.16;80.24
68746;SHT31;73143;45.456;11.064;2024-01-30T08:24:53;-0.05;80.02
68746;SHT31;73143;45.456;11.064;2024-01-30T08:27:30;-0.00;79.75
68746;SHT31;73143;45.456;11.064;2024-01-30T08:30:09;0.06;79.70
68746;SHT31;73143;45.456;11.064;2024-01-30T08:32:49;0.15;79.66
68746;SHT31;73143;45.456;11.064;2024-01-30T08:35:28;0.26;79.64
68746;SHT31;73143;45.456;11.064;2024-01-30T08:38:05;0.36;79.38
68746;SHT31;73143;45.456;11.064;2024-01-30T08:40:44;0.46;79.43
68746;SHT31;73143;45.456;11.064;2024-01-30T08:43:21;0.52;79.68
68746;SHT31;73143;45.456;11.064;2024-01-30T08:46:00;0.56;79.62
68746;SHT31;73143;45.456;11.064;2024-01-30T08:48:38;0.61;79.86
68746;SHT31;73143;45.456;11.064;2024-01-30T08:51:15;0.65;79.94
68746;SHT31;73143;45.456;11.064;2024-01-30T08:53:51;0.74;79.92
68746;SHT31;73143;45.456;11.064;2024-01-30T08:56:28;0.81;79.96
68746;SHT31;73143;45.456;11.064;2024-01-30T08:59:04;0.88;79.96
68746;SHT31;73143;45.456;11.064;2024-01-30T09:01:42;0.95;80.04
68746;SHT31;73143;45.456;11.064;2024-01-30T09:04:35;1.01;80.12
68746;SHT31;73143;45.456;11.064;2024-01-30T09:07:12;1.07;80.11
68746;SHT31;73143;45.456;11.064;2024-01-30T09:09:50;1.17;80.04
68746;SHT31;73143;45.456;11.064;2024-01-30T09:12:27;1.27;80.05
68746;SHT31;73143;45.456;11.064;2024-01-30T09:15:04;1.36;80.18
68746;SHT31;73143;45.456;11.064;2024-01-30T09:17:45;1.44;80.40
68746;SHT31;73143;45.456;11.064;2024-01-30T09:20:22;1.55;80.51
68746;SHT31;73143;45.456;11.064;2024-01-30T09:23:03;1.64;79.97
68746;SHT31;73143;45.456;11.064;2024-01-30T09:25:43;1.73;79.66
68746;SHT31;73143;45.456;11.064;2024-01-30T09:28:19;1.81;79.84
68746;SHT31;73143;45.456;11.064;2024-01-30T09:30:56;1.88;80.15
68746;SHT31;73143;45.456;11.064;2024-01-30T09:33:34;1.95;80.02
68746;SHT31;73143;45.456;11.064;2024-01-30T09:36:13;2.00;79.77
68746;SHT31;73143;45.456;11.064;2024-01-30T09:38:51;2.04;79.86
68746;SHT31;73143;45.456;11.064;2024-01-30T09:41:28;2.09;79.76
68746;SHT31;73143;45.456;11.064;2024-01-30T09:44:14;2.13;79.48
68746;SHT31;73143;45.456;11.064;2024-01-30T09:46:55;2.18;79.48
68746;SHT31;73143;45.456;11.064;2024-01-30T09:49:36;2.27;79.74
68746;SHT31;73143;45.456;11.064;2024-01-30T09:52:17;2.36;79.71
68746;SHT31;73143;45.456;11.064;2024-01-30T09:54:54;2.44;79.74
68746;SHT31;73143;45.456;11.064;2024-01-30T09:57:34;2.54;79.43
68746;SHT31;73143;45.456;11.064;2024-01-30T10:00:16;2.63;79.14
68746;SHT31;73143;45.456;11.064;2024-01-30T10:02:56;2.75;78.75
68746;SHT31;73143;45.456;11.064;2024-01-30T10:05:35;2.87;78.51
68746;SHT31;73143;45.456;11.064;2024-01-30T10:08:21;2.97;78.09
68746;SHT31;73143;45.456;11.064;2024-01-30T10:11:01;3.07;78.12
68746;SHT31;73143;45.456;11.064;2024-01-30T10:13:38;3.18;78.05
68746;SHT31;73143;45.456;11.064;2024-01-30T10:16:15;3.29;77.60
68746;SHT31;73143;45.456;11.064;2024-01-30T10:18:53;3.39;77.73
68746;SHT31;73143;45.456;11.064;2024-01-30T10:21:31;3.52;77.93
68746;SHT31;73143;45.456;11.064;2024-01-30T10:24:09;3.61;77.89
68746;SHT31;73143;45.456;11.064;2024-01-30T10:26:47;3.72;77.72
68746;SHT31;73143;45.456;11.064;2024-01-30T10:29:24;3.82;77.59
68746;SHT31;73143;45.456;11.064;2024-01-30T10:32:02;3.93;77.55
68746;SHT31;73143;45.456;11.064;2024-01-30T10:34:41;4.02;77.58
68746;SHT31;73143;45.456;11.064;2024-01-30T10:37:17;4.10;77.34
68746;SHT31;73143;45.456;11.064;2024-01-30T10:40:03;4.16;77.26
68746;SHT31;73143;45.456;11.064;2024-01-30T10:42:46;4.24;77.29
68746;SHT31;73143;45.456;11.064;2024-01-30T10:45:29;4.33;77.30
68746;SHT31;73143;45.456;11.064;2024-01-30T10:48:10;4.42;77.28
68746;SHT31;73143;45.456;11.064;2024-01-30T10:50:51;4.51;77.27
68746;SHT31;73143;45.456;11.064;2024-01-30T10:53:32;4.63;77.22
68746;SHT31;73143;45.456;11.064;2024-01-30T10:56:10;4.72;77.21
68746;SHT31;73143;45.456;11.064;2024-01-30T10:58:48;4.82;77.24
68746;SHT31;73143;45.456;11.064;2024-01-30T11:01:28;4.92;77.02
68746;SHT31;73143;45.456;11.064;2024-01-30T11:04:06;5.01;76.95
68746;SHT31;73143;45.456;11.064;2024-01-30T11:06:44;5.12;76.74
68746;SHT31;73143;45.456;11.064;2024-01-30T11:09:23;5.21;76.70
68746;SHT31;73143;45.456;11.064;2024-01-30T11:12:11;5.31;76.59
68746;SHT31;73143;45.456;11.064;2024-01-30T11:14:52;5.41;76.37
68746;SHT31;73143;45.456;11.064;2024-01-30T11:17:49;5.51;76.11
68746;SHT31;73143;45.456;11.064;2024-01-30T11:20:29;5.62;75.90
68746;SHT31;73143;45.456;11.064;2024-01-30T11:23:07;5.72;75.76
68746;SHT31;73143;45.456;11.064;2024-01-30T11:25:45;5.83;75.55
68746;SHT31;73143;45.456;11.064;2024-01-30T11:28:23;5.94;75.38
68746;SHT31;73143;45.456;11.064;2024-01-30T11:31:07;6.04;75.09
68746;SHT31;73143;45.456;11.064;2024-01-30T11:33:56;6.14;74.69
68746;SHT31;73143;45.456;11.064;2024-01-30T11:36:34;6.21;74.39
68746;SHT31;73143;45.456;11.064;2024-01-30T11:39:16;6.30;74.29
68746;SHT31;73143;45.456;11.064;2024-01-30T11:41:54;6.40;74.30
68746;SHT31;73143;45.456;11.064;2024-01-30T11:44:34;6.45;74.15
68746;SHT31;73143;45.456;11.064;2024-01-30T11:47:15;6.53;74.15
68746;SHT31;73143;45.456;11.064;2024-01-30T11:49:54;6.61;74.05
68746;SHT31;73143;45.456;11.064;2024-01-30T11:52:33;6.67;73.86
68746;SHT31;73143;45.456;11.064;2024-01-30T11:55:11;6.69;73.63
68746;SHT31;73143;45.456;11.064;2024-01-30T11:57:49;6.73;73.79
68746;SHT31;73143;45.456;11.064;2024-01-30T12:00:29;6.79;73.60
68746;SHT31;73143;45.456;11.064;2024-01-30T12:03:06;6.82;73.52
68746;SHT31;73143;45.456;11.064;2024-01-30T12:05:45;6.85;73.62
68746;SHT31;73143;45.456;11.064;2024-01-30T12:08:29;6.89;73.60
68746;SHT31;73143;45.456;11.064;2024-01-30T12:11:08;6.94;73.60
68746;SHT31;73143;45.456;11.064;2024-01-30T12:13:45;7.01;73.51
68746;SHT31;73143;45.456;11.064;2024-01-30T12:16:25;7.11;73.45
68746;SHT31;73143;45.456;11.064;2024-01-30T12:19:04;7.20;73.24
68746;SHT31;73143;45.456;11.064;2024-01-30T12:21:41;7.28;73.20
68746;SHT31;73143;45.456;11.064;2024-01-30T12:24:18;7.35;73.13
68746;SHT31;73143;45.456;11.064;2024-01-30T12:26:59;7.39;72.88
68746;SHT31;73143;45.456;11.064;2024-01-30T12:29:41;7.44;72.97
68746;SHT31;73143;45.456;11.064;2024-01-30T12:32:18;7.48;72.90
68746;SHT31;73143;45.456;11.064;2024-01-30T12:34:58;7.51;72.90
68746;SHT31;73143;45.456;11.064;2024-01-30T12:37:40;7.55;72.97
68746;SHT31;73143;45.456;11.064;2024-01-30T12:40:17;7.59;72.96
68746;SHT31;73143;45.456;11.064;2024-01-30T12:42:55;7.62;73.04
68746;SHT31;73143;45.456;11.064;2024-01-30T12:45:35;7.66;72.77
68746;SHT31;73143;45.456;11.064;2024-01-30T12:48:13;7.71;72.71
68746;SHT31;73143;45.456;11.064;2024-01-30T12:50:51;7.78;72.40
68746;SHT31;73143;45.456;11.064;2024-01-30T12:53:29;7.83;72.33
68746;SHT31;73143;45.456;11.064;2024-01-30T12:56:07;7.89;72.11
68746;SHT31;73143;45.456;11.064;2024-01-30T12:58:44;7.93;71.82
68746;SHT31;73143;45.456;11.064;2024-01-30T13:01:24;7.99;71.86
68746;SHT31;73143;45.456;11.064;2024-01-30T13:04:01;8.05;71.77
68746;SHT31;73143;45.456;11.064;2024-01-30T13:06:39;8.12;71.46
68746;SHT31;73143;45.456;11.064;2024-01-30T13:09:16;8.17;71.23
68746;SHT31;73143;45.456;11.064;2024-01-30T13:11:53;8.24;71.05
68746;SHT31;73143;45.456;11.064;2024-01-30T13:14:31;8.30;70.63
68746;SHT31;73143;45.456;11.064;2024-01-30T13:17:09;8.37;70.83
68746;SHT31;73143;45.456;11.064;2024-01-30T13:19:46;8.44;70.55
68746;SHT31;73143;45.456;11.064;2024-01-30T13:22:29;8.50;69.93
68746;SHT31;73143;45.456;11.064;2024-01-30T13:25:08;8.55;69.74
68746;SHT31;73143;45.456;11.064;2024-01-30T13:27:45;8.60;69.51
68746;SHT31;73143;45.456;11.064;2024-01-30T13:30:23;8.63;69.60
68746;SHT31;73143;45.456;11.064;2024-01-30T13:33:00;8.63;69.49
68746;SHT31;73143;45.456;11.064;2024-01-30T13:35:38;8.67;69.59
68746;SHT31;73143;45.456;11.064;2024-01-30T13:38:14;8.72;69.42
68746;SHT31;73143;45.456;11.064;2024-01-30T13:40:52;8.76;68.88
68746;SHT31;73143;45.456;11.064;2024-01-30T13:43:29;8.82;68.51
68746;SHT31;73143;45.456;11.064;2024-01-30T13:46:05;8.85;68.22
68746;SHT31;73143;45.456;11.064;2024-01-30T13:48:43;8.89;68.08
68746;SHT31;73143;45.456;11.064;2024-01-30T13:51:21;8.95;68.03
68746;SHT31;73143;45.456;11.064;2024-01-30T13:53:57;8.98;68.06
68746;SHT31;73143;45.456;11.064;2024-01-30T13:56:34;9.01;68.31
68746;SHT31;73143;45.456;11.064;2024-01-30T13:59:12;9.02;68.27
68746;SHT31;73143;45.456;11.064;2024-01-30T14:01:53;9.05;68.46
68746;SHT31;73143;45.456;11.064;2024-01-30T14:04:30;9.09;68.61
68746;SHT31;73143;45.456;11.064;2024-01-30T14:07:08;9.13;68.50
68746;SHT31;73143;45.456;11.064;2024-01-30T14:09:47;9.15;68.17
68746;SHT31;73143;45.456;11.064;2024-01-30T14:12:24;9.17;67.87
68746;SHT31;73143;45.456;11.064;2024-01-30T14:15:02;9.16;68.01
68746;SHT31;73143;45.456;11.064;2024-01-30T14:17:55;9.18;67.67
68746;SHT31;73143;45.456;11.064;2024-01-30T14:20:33;9.19;67.70
68746;SHT31;73143;45.456;11.064;2024-01-30T14:23:10;9.20;67.59
68746;SHT31;73143;45.456;11.064;2024-01-30T14:25:49;9.23;67.30
68746;SHT31;73143;45.456;11.064;2024-01-30T14:28:26;9.22;66.81
68746;SHT31;73143;45.456;11.064;2024-01-30T14:31:04;9.21;66.83
68746;SHT31;73143;45.456;11.064;2024-01-30T14:33:42;9.20;66.50
68746;SHT31;73143;45.456;11.064;2024-01-30T14:36:19;9.18;66.31
68746;SHT31;73143;45.456;11.064;2024-01-30T14:38:59;9.14;66.11
68746;SHT31;73143;45.456;11.064;2024-01-30T14:41:37;9.10;66.27
68746;SHT31;73143;45.456;11.064;2024-01-30T14:44:14;9.06;66.51
68746;SHT31;73143;45.456;11.064;2024-01-30T14:46:51;8.98;66.60
68746;SHT31;73143;45.456;11.064;2024-01-30T14:49:29;8.92;66.92
68746;SHT31;73143;45.456;11.064;2024-01-30T14:52:07;8.85;67.30
68746;SHT31;73143;45.456;11.064;2024-01-30T14:54:45;8.80;67.51
68746;SHT31;73143;45.456;11.064;2024-01-30T14:57:27;8.76;67.61
68746;SHT31;73143;45.456;11.064;2024-01-30T15:00:09;8.72;67.74
68746;SHT31;73143;45.456;11.064;2024-01-30T15:02:55;8.65;67.71
68746;SHT31;73143;45.456;11.064;2024-01-30T15:05:32;8.56;67.86
68746;SHT31;73143;45.456;11.064;2024-01-30T15:08:09;8.49;68.09
68746;SHT31;73143;45.456;11.064;2024-01-30T15:10:47;8.42;68.10
68746;SHT31;73143;45.456;11.064;2024-01-30T15:13:25;8.34;68.03
68746;SHT31;73143;45.456;11.064;2024-01-30T15:16:04;8.25;68.06
68746;SHT31;73143;45.456;11.064;2024-01-30T15:18:46;8.16;68.13
68746;SHT31;73143;45.456;11.064;2024-01-30T15:21:26;8.10;68.13
68746;SHT31;73143;45.456;11.064;2024-01-30T15:24:05;8.04;68.45
68746;SHT31;73143;45.456;11.064;2024-01-30T15:26:45;8.00;68.81
68746;SHT31;73143;45.456;11.064;2024-01-30T15:29:22;7.96;69.20
68746;SHT31;73143;45.456;11.064;2024-01-30T15:32:02;7.93;69.62
68746;SHT31;73143;45.456;11.064;2024-01-30T15:34:42;7.89;70.01
68746;SHT31;73143;45.456;11.064;2024-01-30T15:37:19;7.86;70.57
68746;SHT31;73143;45.456;11.064;2024-01-30T15:39:58;7.81;71.14
68746;SHT31;73143;45.456;11.064;2024-01-30T15:42:38;7.78;71.53
68746;SHT31;73143;45.456;11.064;2024-01-30T15:45:19;7.72;71.86
68746;SHT31;73143;45.456;11.064;2024-01-30T15:47:57;7.67;72.11
68746;SHT31;73143;45.456;11.064;2024-01-30T15:50:35;7.62;72.32
68746;SHT31;73143;45.456;11.064;2024-01-30T15:53:13;7.58;72.53
68746;SHT31;73143;45.456;11.064;2024-01-30T15:55:53;7.54;72.72
68746;SHT31;73143;45.456;11.064;2024-01-30T15:58:31;7.51;72.86
68746;SHT31;73143;45.456;11.064;2024-01-30T16:01:08;7.47;73.05
68746;SHT31;73143;45.456;11.064;2024-01-30T16:03:46;7.43;73.25
68746;SHT31;73143;45.456;11.064;2024-01-30T16:06:23;7.40;73.38
68746;SHT31;73143;45.456;11.064;2024-01-30T16:09:09;7.36;73.58
68746;SHT31;73143;45.456;11.064;2024-01-30T16:11:46;7.33;73.69
68746;SHT31;73143;45.456;11.064;2024-01-30T16:14:24;7.30;73.81
68746;SHT31;73143;45.456;11.064;2024-01-30T16:17:06;7.26;73.99
68746;SHT31;73143;45.456;11.064;2024-01-30T16:19:44;7.21;74.06
68746;SHT31;73143;45.456;11.064;2024-01-30T16:22:23;7.17;74.08
68746;SHT31;73143;45.456;11.064;2024-01-30T16:25:00;7.11;73.70
68746;SHT31;73143;45.456;11.064;2024-01-30T16:27:38;7.05;73.54
68746;SHT31;73143;45.456;11.064;2024-01-30T16:30:18;6.99;73.50
68746;SHT31;73143;45.456;11.064;2024-01-30T16:32:55;6.93;73.63
68746;SHT31;73143;45.456;11.064;2024-01-30T16:35:33;6.87;73.78
68746;SHT31;73143;45.456;11.064;2024-01-30T16:38:15;6.84;73.94